createdAt,value
2022-08-07T00:01:43.669Z,85.18
2022-08-07T00:04:05.139Z,85.22
2022-08-07T00:06:33.776Z,85.11
2022-08-07T00:09:16.866Z,84.91
2022-08-07T00:11:53.825Z,84.84
2022-08-07T00:14:21.428Z,84.80
2022-08-07T00:16:52.627Z,84.66
2022-08-07T00:19:21.591Z,84.49
2022-08-07T00:21:56.779Z,84.52
2022-08-07T00:24:28.997Z,84.53
2022-08-07T00:27:07.243Z,84.54
2022-08-07T00:29:37.043Z,84.48
2022-08-07T00:32:05.985Z,84.71
2022-08-07T00:34:35.519Z,84.59
2022-08-07T00:37:04.915Z,84.60
2022-08-07T00:39:35.880Z,84.63
2022-08-07T00:42:05.432Z,84.77
2022-08-07T00:44:33.770Z,84.86
2022-08-07T00:47:01.880Z,84.92
2022-08-07T00:50:21.367Z,85.00
2022-08-07T00:52:19.800Z,85.14
2022-08-07T00:54:53.326Z,85.29
2022-08-07T00:57:25.849Z,85.28
2022-08-07T00:59:53.925Z,85.49
2022-08-07T01:02:28.647Z,85.47
2022-08-07T01:04:58.737Z,85.53
2022-08-07T01:07:27.585Z,85.50
2022-08-07T01:10:06.066Z,85.69
2022-08-07T01:12:38.695Z,85.91
2022-08-07T01:15:06.733Z,85.89
2022-08-07T01:17:40.080Z,85.95
2022-08-07T01:20:17.015Z,85.93
2022-08-07T01:23:00.567Z,85.91
2022-08-07T01:25:54.355Z,85.94
2022-08-07T01:28:19.208Z,86.02
2022-08-07T01:30:47.917Z,85.96
2022-08-07T01:33:18.716Z,86.01
2022-08-07T01:35:54.141Z,86.08
2022-08-07T01:38:25.214Z,86.32
2022-08-07T01:41:01.071Z,86.22
2022-08-07T01:43:38.168Z,86.29
2022-08-07T01:46:08.101Z,86.34
2022-08-07T01:48:41.256Z,86.51
2022-08-07T01:52:02.734Z,86.42
2022-08-07T01:54:12.266Z,86.32
2022-08-07T01:56:52.849Z,86.37
2022-08-07T01:59:30.838Z,86.45
2022-08-07T02:02:06.025Z,86.46
2022-08-07T02:04:55.975Z,86.57
2022-08-07T02:07:35.833Z,86.44
2022-08-07T02:10:14.466Z,86.71
2022-08-07T02:12:42.844Z,86.76
2022-08-07T02:15:20.286Z,86.78
2022-08-07T02:17:51.998Z,86.84
2022-08-07T02:20:23.459Z,86.85
2022-08-07T02:22:55.396Z,86.80
2022-08-07T02:26:10.547Z,86.86
2022-08-07T02:28:11.401Z,86.79
2022-08-07T02:30:38.979Z,86.93
2022-08-07T02:33:09.346Z,86.97
2022-08-07T02:36:29.365Z,86.97
2022-08-07T02:38:31.453Z,87.09
2022-08-07T02:41:00.629Z,87.01
2022-08-07T02:43:27.991Z,87.13
2022-08-07T02:46:01.475Z,87.25
2022-08-07T02:48:30.478Z,87.26
2022-08-07T02:50:57.987Z,87.36
2022-08-07T02:53:34.045Z,87.48
2022-08-07T02:56:17.327Z,87.53
2022-08-07T02:58:48.275Z,87.52
2022-08-07T03:01:18.757Z,87.69
2022-08-07T03:03:49.787Z,87.98
2022-08-07T03:06:26.085Z,88.00
2022-08-07T03:09:02.162Z,88.04
2022-08-07T03:11:29.004Z,88.26
2022-08-07T03:14:01.858Z,88.28
2022-08-07T03:16:30.892Z,88.52
2022-08-07T03:18:58.497Z,88.63
2022-08-07T03:21:25.778Z,88.76
2022-08-07T03:24:21.220Z,89.06
2022-08-07T03:26:58.395Z,89.22
2022-08-07T03:29:33.932Z,89.61
2022-08-07T03:32:06.662Z,89.71
2022-08-07T03:34:39.506Z,89.95
2022-08-07T03:37:14.281Z,90.28
2022-08-07T03:40:13.257Z,90.49
2022-08-07T03:42:36.673Z,90.68
2022-08-07T03:45:05.079Z,90.79
2022-08-07T03:47:47.822Z,91.12
2022-08-07T03:50:23.036Z,91.22
2022-08-07T03:55:57.414Z,91.60
2022-08-07T03:59:04.710Z,91.82
2022-08-07T04:01:19.205Z,92.13
2022-08-07T04:03:55.159Z,92.38
2022-08-07T04:06:36.103Z,92.63
2022-08-07T04:09:03.679Z,92.88
2022-08-07T04:12:25.604Z,92.76
2022-08-07T04:14:39.036Z,92.57
2022-08-07T04:17:20.066Z,92.04
2022-08-07T04:19:51.536Z,91.59
2022-08-07T04:22:28.704Z,90.94
2022-08-07T04:24:58.712Z,90.35
2022-08-07T04:27:28.461Z,90.03
2022-08-07T04:30:11.850Z,89.76
2022-08-07T04:32:58.161Z,89.59
2022-08-07T04:35:25.839Z,89.65
2022-08-07T04:38:03.120Z,89.59
2022-08-07T04:40:34.143Z,89.34
2022-08-07T04:43:03.387Z,88.93
2022-08-07T04:46:00.732Z,88.39
2022-08-07T04:48:44.483Z,87.56
2022-08-07T04:51:36.782Z,86.07
2022-08-07T04:54:16.371Z,84.68
2022-08-07T04:58:10.523Z,83.56
2022-08-07T05:00:36.480Z,82.07
2022-08-07T05:04:00.936Z,80.75
2022-08-07T05:06:53.311Z,79.39
2022-08-07T05:09:45.323Z,78.29
2022-08-07T05:12:27.322Z,76.98
2022-08-07T05:15:04.390Z,76.30
2022-08-07T05:18:00.713Z,75.32
2022-08-07T05:20:25.032Z,74.20
2022-08-07T05:22:55.278Z,73.15
2022-08-07T05:25:25.687Z,72.60
2022-08-07T05:28:20.675Z,72.24
2022-08-07T05:30:52.223Z,71.64
2022-08-07T05:33:20.870Z,71.19
2022-08-07T05:35:51.595Z,70.77
2022-08-07T05:39:00.017Z,70.43
2022-08-07T05:41:14.578Z,69.89
2022-08-07T05:44:07.945Z,69.31
2022-08-07T05:46:35.196Z,68.71
2022-08-07T05:49:11.911Z,67.40
2022-08-07T05:51:46.537Z,66.45
2022-08-07T05:54:31.452Z,65.44
2022-08-07T05:57:04.023Z,64.77
2022-08-07T05:59:46.534Z,63.69
2022-08-07T06:02:21.971Z,63.10
2022-08-07T06:04:58.164Z,63.16
2022-08-07T06:08:13.748Z,62.79
2022-08-07T06:10:15.200Z,62.33
2022-08-07T06:12:43.471Z,62.05
2022-08-07T06:15:10.490Z,62.13
2022-08-07T06:17:53.783Z,62.27
2022-08-07T06:20:31.838Z,62.44
2022-08-07T06:23:46.145Z,62.74
2022-08-07T06:25:58.570Z,62.71
2022-08-07T06:28:27.353Z,62.61
2022-08-07T06:30:55.383Z,62.89
2022-08-07T06:33:22.852Z,62.73
2022-08-07T06:36:11.901Z,62.51
2022-08-07T06:38:59.434Z,61.93
2022-08-07T06:42:02.539Z,61.85
2022-08-07T06:44:45.202Z,61.92
2022-08-07T06:47:19.016Z,61.71
2022-08-07T06:49:52.186Z,61.58
2022-08-07T06:52:35.706Z,61.45
2022-08-07T06:55:31.492Z,61.89
2022-08-07T06:58:05.190Z,61.99
2022-08-07T07:00:42.239Z,61.84
2022-08-07T07:03:13.959Z,62.15
2022-08-07T07:06:05.032Z,62.46
2022-08-07T07:08:32.995Z,62.30
2022-08-07T07:11:01.451Z,62.32
2022-08-07T07:13:57.524Z,62.26
2022-08-07T07:16:30.517Z,61.98
2022-08-07T07:19:04.114Z,61.90
2022-08-07T07:22:05.475Z,61.96
2022-08-07T07:24:39.746Z,62.03
2022-08-07T07:27:10.230Z,61.47
2022-08-07T07:30:08.725Z,61.83
2022-08-07T07:32:25.811Z,61.89
2022-08-07T07:34:54.389Z,61.56
2022-08-07T07:37:45.242Z,61.60
2022-08-07T07:40:10.234Z,61.96
2022-08-07T07:42:42.959Z,61.71
2022-08-07T07:45:14.796Z,61.16
2022-08-07T07:47:52.801Z,60.85
2022-08-07T07:50:35.098Z,60.13
2022-08-07T07:53:06.550Z,59.36
2022-08-07T07:55:57.408Z,59.14
2022-08-07T07:58:30.029Z,59.56
2022-08-07T08:00:57.850Z,59.57
2022-08-07T08:04:10.909Z,59.80
2022-08-07T08:06:13.182Z,59.31
2022-08-07T08:08:41.922Z,59.44
2022-08-07T08:11:16.592Z,58.62
2022-08-07T08:13:54.729Z,58.87
2022-08-07T08:16:50.282Z,58.91
2022-08-07T08:20:17.276Z,58.19
2022-08-07T08:22:32.737Z,57.82
2022-08-07T08:25:42.640Z,56.92
2022-08-07T08:28:06.022Z,56.84
2022-08-07T08:30:34.433Z,56.60
2022-08-07T08:33:03.235Z,56.07
2022-08-07T08:35:39.593Z,56.21
2022-08-07T08:38:17.165Z,55.83
2022-08-07T08:41:05.579Z,55.52
2022-08-07T08:43:56.069Z,55.51
2022-08-07T08:46:34.385Z,54.81
2022-08-07T08:49:07.327Z,54.85
2022-08-07T08:52:12.627Z,55.08
2022-08-07T08:54:32.376Z,55.19
2022-08-07T08:57:04.052Z,54.66
2022-08-07T08:59:48.226Z,54.56
2022-08-07T09:02:35.094Z,54.10
2022-08-07T09:05:21.553Z,54.09
2022-08-07T09:08:02.854Z,53.77
2022-08-07T09:10:34.555Z,53.83
2022-08-07T09:13:35.260Z,54.40
2022-08-07T09:16:20.132Z,54.47
2022-08-07T09:19:44.650Z,54.21
2022-08-07T09:24:33.528Z,54.14
2022-08-07T09:25:28.058Z,53.82
2022-08-07T09:30:00.459Z,54.03
2022-08-07T09:30:58.714Z,54.15
2022-08-07T09:33:57.189Z,54.24
2022-08-07T09:36:35.869Z,54.34
2022-08-07T09:39:53.769Z,54.27
2022-08-07T09:42:33.667Z,54.73
2022-08-07T09:47:27.828Z,54.71
2022-08-07T09:48:43.923Z,53.64
2022-08-07T09:52:15.352Z,53.75
2022-08-07T09:54:55.027Z,54.65
2022-08-07T09:57:36.564Z,55.92
2022-08-07T10:00:14.643Z,57.36
2022-08-07T10:03:08.210Z,58.46
2022-08-07T10:06:11.892Z,59.25
2022-08-07T10:09:05.380Z,59.96
2022-08-07T10:12:01.660Z,59.95
2022-08-07T10:14:57.200Z,60.52
2022-08-07T10:18:00.823Z,61.82
2022-08-07T10:20:57.885Z,63.30
2022-08-07T10:24:06.812Z,64.31
2022-08-07T10:27:10.416Z,64.51
2022-08-07T10:29:51.530Z,64.53
2022-08-07T10:32:36.738Z,64.19
2022-08-07T10:35:56.771Z,62.56
2022-08-07T10:38:41.137Z,61.36
2022-08-07T10:41:52.894Z,61.48
2022-08-07T10:44:45.175Z,60.83
2022-08-07T10:47:14.041Z,60.34
2022-08-07T10:49:51.097Z,60.02
2022-08-07T10:52:22.186Z,60.51
2022-08-07T10:55:26.656Z,60.94
2022-08-07T10:58:17.514Z,62.92
2022-08-07T11:00:56.432Z,63.24
2022-08-07T11:03:37.850Z,64.12
2022-08-07T11:06:44.537Z,64.90
2022-08-07T11:10:08.833Z,66.06
2022-08-07T11:12:06.812Z,67.72
2022-08-07T11:14:43.827Z,69.14
2022-08-07T11:17:56.843Z,70.04
2022-08-07T11:21:00.128Z,70.39
2022-08-07T11:23:45.542Z,69.69
2022-08-07T11:26:31.817Z,70.73
2022-08-07T11:29:41.160Z,71.88
2022-08-07T11:32:26.052Z,72.98
2022-08-07T11:35:01.975Z,73.73
2022-08-07T11:37:58.443Z,74.24
2022-08-07T11:40:57.406Z,75.29
2022-08-07T11:44:11.505Z,76.82
2022-08-07T11:46:48.593Z,77.91
2022-08-07T11:49:50.195Z,78.61
2022-08-07T11:52:29.466Z,79.35
2022-08-07T11:56:09.136Z,80.40
2022-08-07T11:58:22.174Z,81.56
2022-08-07T12:01:59.727Z,82.16
2022-08-07T12:04:29.571Z,82.69
2022-08-07T12:07:39.269Z,82.96
2022-08-07T12:10:15.788Z,83.24
2022-08-07T12:12:51.911Z,82.91
2022-08-07T12:15:46.216Z,82.41
2022-08-07T12:18:45.315Z,81.94
2022-08-07T12:21:55.667Z,82.10
2022-08-07T12:24:37.787Z,82.99
2022-08-07T12:27:16.782Z,83.94
2022-08-07T12:29:56.963Z,84.83
2022-08-07T12:32:42.945Z,85.57
2022-08-07T12:35:13.231Z,85.83
2022-08-07T12:38:10.109Z,86.14
2022-08-07T12:40:47.284Z,86.55
2022-08-07T12:44:04.024Z,87.18
2022-08-07T12:46:10.481Z,87.84
2022-08-07T12:49:39.864Z,88.05
2022-08-07T12:52:17.979Z,88.46
2022-08-07T12:55:09.270Z,88.94
2022-08-07T12:57:59.510Z,89.13
2022-08-07T13:00:36.005Z,89.38
2022-08-07T13:03:54.984Z,89.61
2022-08-07T13:07:00.695Z,89.54
2022-08-07T13:10:28.550Z,89.18
2022-08-07T13:13:08.251Z,88.96
2022-08-07T13:15:53.202Z,88.54
2022-08-07T13:18:54.196Z,88.65
2022-08-07T13:21:50.371Z,88.92
2022-08-07T13:24:52.212Z,89.22
2022-08-07T13:28:11.236Z,89.32
2022-08-07T13:30:40.238Z,89.32
2022-08-07T13:34:33.964Z,89.31
2022-08-07T13:36:54.592Z,89.09
2022-08-07T13:40:32.740Z,88.96
2022-08-07T13:42:21.467Z,88.69
2022-08-07T13:45:11.541Z,88.83
2022-08-07T13:48:06.605Z,88.79
2022-08-07T13:50:34.442Z,88.96
2022-08-07T13:53:02.990Z,88.91
2022-08-07T13:55:29.798Z,89.00
2022-08-07T13:58:27.594Z,88.75
2022-08-07T14:00:55.294Z,88.68
2022-08-07T14:03:30.046Z,88.56
2022-08-07T14:06:10.634Z,88.80
2022-08-07T14:08:46.024Z,89.13
2022-08-07T14:11:21.706Z,89.22
2022-08-07T14:13:55.274Z,89.34
2022-08-07T14:16:31.774Z,89.49
2022-08-07T14:18:58.552Z,89.49
2022-08-07T14:22:00.995Z,89.53
2022-08-07T14:24:37.237Z,89.22
2022-08-07T14:27:16.082Z,89.15
2022-08-07T14:30:11.282Z,89.51
2022-08-07T14:32:45.785Z,89.89
2022-08-07T14:35:45.514Z,90.20
2022-08-07T14:38:09.372Z,90.55
2022-08-07T14:40:57.485Z,90.87
2022-08-07T14:43:59.470Z,91.27
2022-08-07T14:46:12.758Z,91.64
2022-08-07T14:48:44.311Z,91.99
2022-08-07T14:51:19.779Z,92.26
2022-08-07T14:54:05.906Z,92.30
2022-08-07T14:56:34.319Z,92.41
2022-08-07T14:59:14.152Z,92.54
2022-08-07T15:01:52.018Z,92.65
2022-08-07T15:04:18.946Z,92.58
2022-08-07T15:06:47.853Z,92.22
2022-08-07T15:09:59.648Z,92.09
2022-08-07T15:12:07.929Z,92.11
2022-08-07T15:14:56.043Z,92.02
2022-08-07T15:17:31.133Z,91.62
2022-08-07T15:20:32.723Z,91.67
2022-08-07T15:22:53.742Z,91.68
2022-08-07T15:25:25.495Z,91.47
2022-08-07T15:28:36.467Z,91.34
2022-08-07T15:30:59.418Z,91.16
2022-08-07T15:37:02.369Z,91.43
2022-08-07T15:44:52.175Z,91.75
2022-08-07T15:47:19.387Z,91.49
2022-08-07T15:50:04.904Z,91.19
2022-08-07T15:52:36.429Z,90.90
2022-08-07T15:55:08.661Z,90.52
2022-08-07T15:57:40.000Z,90.54
2022-08-07T16:00:31.733Z,90.60
2022-08-07T16:03:22.072Z,90.41
2022-08-07T16:05:57.399Z,90.21
2022-08-07T16:08:30.360Z,90.29
2022-08-07T16:13:58.471Z,90.57
2022-08-07T16:16:59.236Z,90.73
2022-08-07T16:19:59.146Z,90.76
2022-08-07T16:22:33.419Z,90.88
2022-08-07T16:25:55.035Z,90.89
2022-08-07T16:30:07.140Z,91.20
2022-08-07T16:31:50.072Z,91.52
2022-08-07T16:34:26.231Z,91.90
2022-08-07T16:38:06.318Z,92.30
2022-08-07T16:41:02.312Z,92.57
2022-08-07T16:44:03.908Z,92.85
2022-08-07T16:47:16.568Z,92.90
2022-08-07T16:50:35.214Z,92.83
2022-08-07T16:54:02.037Z,92.91
2022-08-07T16:56:04.206Z,92.76
2022-08-07T16:59:11.095Z,92.68
2022-08-07T17:01:49.858Z,92.79
2022-08-07T17:04:24.562Z,92.73
2022-08-07T17:07:02.794Z,92.80
2022-08-07T17:10:32.262Z,92.65
2022-08-07T17:13:41.600Z,92.89
2022-08-07T17:16:25.190Z,92.97
2022-08-07T17:18:51.969Z,93.07
2022-08-07T17:21:22.656Z,93.17
2022-08-07T17:24:33.921Z,93.27
2022-08-07T17:27:09.041Z,93.40
2022-08-07T17:30:14.011Z,93.46
2022-08-07T17:34:09.107Z,93.63
2022-08-07T17:36:03.311Z,93.66
2022-08-07T17:38:35.353Z,93.82
2022-08-07T17:41:12.463Z,94.01
2022-08-07T17:44:42.732Z,94.08
2022-08-07T17:47:38.739Z,94.09
2022-08-07T17:50:52.530Z,94.08
2022-08-07T17:53:59.948Z,94.09
2022-08-07T17:56:29.111Z,93.97
2022-08-07T17:58:56.960Z,94.04
2022-08-07T18:01:56.703Z,93.99
2022-08-07T18:04:57.780Z,94.07
2022-08-07T18:07:47.117Z,93.90
2022-08-07T18:12:07.996Z,93.97
2022-08-07T18:14:18.198Z,94.03
2022-08-07T18:17:05.229Z,94.08
2022-08-07T18:21:10.228Z,93.98
2022-08-07T18:22:50.341Z,94.01
2022-08-07T18:25:39.099Z,94.06
2022-08-07T18:28:34.055Z,94.10
2022-08-07T18:31:18.477Z,94.13
2022-08-07T18:34:04.175Z,94.00
2022-08-07T18:36:37.092Z,94.12
2022-08-07T18:40:05.624Z,94.08
2022-08-07T18:42:27.653Z,94.10
2022-08-07T18:45:44.735Z,94.03
2022-08-07T18:48:10.304Z,93.98
2022-08-07T18:51:05.060Z,94.01
2022-08-07T18:53:39.684Z,94.01
2022-08-07T18:56:57.852Z,93.95
2022-08-07T18:59:47.233Z,93.76
2022-08-07T19:02:39.470Z,93.69
2022-08-07T19:05:27.887Z,93.49
2022-08-07T19:08:24.280Z,93.27
2022-08-07T19:11:01.016Z,92.93
2022-08-07T19:13:55.445Z,92.65
2022-08-07T19:17:01.510Z,92.69
2022-08-07T19:19:31.962Z,92.57
2022-08-07T19:22:31.017Z,92.67
2022-08-07T19:25:06.370Z,92.73
2022-08-07T19:28:56.654Z,92.72
2022-08-07T19:31:01.612Z,92.67
2022-08-07T19:33:13.348Z,92.65
2022-08-07T19:35:44.039Z,92.44
2022-08-07T19:38:16.858Z,92.26
2022-08-07T19:40:49.215Z,92.28
2022-08-07T19:43:21.690Z,92.23
2022-08-07T19:46:10.227Z,92.39
2022-08-07T19:48:54.039Z,92.40
2022-08-07T19:51:50.582Z,92.46
2022-08-07T19:54:32.024Z,92.58
2022-08-07T19:58:01.870Z,92.55
2022-08-07T19:59:49.406Z,92.58
2022-08-07T20:02:23.631Z,92.50
2022-08-07T20:04:56.209Z,92.42
2022-08-07T20:07:47.149Z,91.91
2022-08-07T20:10:37.958Z,91.36
2022-08-07T20:13:23.685Z,91.01
2022-08-07T20:15:57.886Z,90.61
2022-08-07T20:18:32.226Z,90.57
2022-08-07T20:21:02.161Z,90.60
2022-08-07T20:23:42.884Z,90.57
2022-08-07T20:26:10.560Z,90.60
2022-08-07T20:28:39.094Z,90.59
2022-08-07T20:31:21.059Z,90.68
2022-08-07T20:33:56.689Z,90.60
2022-08-07T20:36:25.646Z,90.64
2022-08-07T20:39:00.554Z,90.70
2022-08-07T20:41:42.673Z,90.58
2022-08-07T20:44:12.465Z,90.62
2022-08-07T20:46:44.201Z,90.54
2022-08-07T20:49:59.168Z,90.39
2022-08-07T20:52:09.242Z,90.31
2022-08-07T20:54:53.882Z,90.22
2022-08-07T20:57:25.122Z,90.17
2022-08-07T21:00:08.289Z,89.94
2022-08-07T21:02:57.808Z,89.96
2022-08-07T21:05:51.260Z,89.97
2022-08-07T21:08:39.303Z,90.05
2022-08-07T21:11:14.643Z,90.03
2022-08-07T21:14:16.476Z,90.15
2022-08-07T21:16:56.334Z,90.36
2022-08-07T21:20:01.110Z,90.59
2022-08-07T21:22:19.759Z,90.94
2022-08-07T21:24:51.050Z,91.22
2022-08-07T21:27:40.177Z,91.37
2022-08-07T21:30:15.621Z,91.67
2022-08-07T21:33:00.920Z,91.99
2022-08-07T21:36:06.033Z,92.01
2022-08-07T21:38:49.819Z,92.21
2022-08-07T21:41:37.825Z,92.20
2022-08-07T21:44:29.811Z,92.29
2022-08-07T21:47:04.744Z,92.38
2022-08-07T21:50:02.616Z,92.45
2022-08-07T21:52:50.378Z,92.56
2022-08-07T21:55:30.063Z,92.71
2022-08-07T21:58:12.315Z,92.93
2022-08-07T22:00:59.615Z,93.04
2022-08-07T22:03:35.154Z,93.17
2022-08-07T22:06:06.304Z,93.32
2022-08-07T22:08:43.287Z,93.64
2022-08-07T22:11:11.204Z,93.70
2022-08-07T22:13:52.944Z,93.82
2022-08-07T22:16:43.568Z,94.02
2022-08-07T22:19:23.689Z,94.01
2022-08-07T22:22:10.776Z,94.29
2022-08-07T22:24:57.438Z,94.57
2022-08-07T22:28:01.256Z,94.79
2022-08-07T22:30:20.160Z,95.03
2022-08-07T22:32:58.265Z,95.04
2022-08-07T22:35:40.492Z,95.25
2022-08-07T22:38:10.612Z,95.47
2022-08-07T22:40:54.933Z,95.42
2022-08-07T22:43:33.858Z,95.53
2022-08-07T22:47:02.696Z,95.52
2022-08-07T22:49:26.211Z,95.75
2022-08-07T22:52:48.801Z,95.56
2022-08-07T22:55:34.098Z,95.67
2022-08-07T22:58:35.102Z,95.53
2022-08-07T23:01:49.935Z,95.45
2022-08-07T23:06:10.127Z,95.57
2022-08-07T23:08:07.353Z,95.25
2022-08-07T23:10:52.333Z,95.21
2022-08-07T23:14:08.876Z,95.13
2022-08-07T23:16:54.791Z,95.09
2022-08-07T23:19:59.855Z,95.11
2022-08-07T23:22:32.895Z,95.12
2022-08-07T23:25:17.556Z,95.29
2022-08-07T23:28:22.719Z,95.34
2022-08-07T23:31:11.188Z,95.46
2022-08-07T23:34:34.211Z,95.55
2022-08-07T23:37:18.574Z,95.64
2022-08-07T23:39:43.191Z,95.83
2022-08-07T23:42:21.796Z,96.01
2022-08-07T23:45:33.447Z,96.15
2022-08-07T23:48:36.168Z,96.34
2022-08-07T23:52:57.161Z,96.35
2022-08-07T23:54:36.430Z,96.58
2022-08-07T23:57:18.469Z,96.83
